Time;durP1;ratioP1;P1;durP2;ratioP2;P2;SDS_P1;SDS_P2;PMS_P1;PMS_P2;Temp;Humidity;BMP_temperature;BMP_pressure;BME280_temperature;BME280_humidity;BME280_pressure;Samples;Min_cycle;Max_cycle;Signal;HPM_P1;HPM_P2
2023/04/23 00:01:58;;;;;;;18.75;14.35;;;10.20;76.90;;;;;;5076530;28;20032;-80
2023/04/23 00:04:28;;;;;;;18.02;14.23;;;10.30;77.20;;;;;;5076821;28;20442;-80
2023/04/23 00:06:54;;;;;;;20.58;14.93;;;10.20;77.20;;;;;;5076269;28;20048;-79
2023/04/23 00:09:22;;;;;;;18.67;14.73;;;10.20;77.20;;;;;;5059667;28;20118;-79
2023/04/23 00:11:48;;;;;;;16.55;13.50;;;10.20;77.30;;;;;;5076262;28;20040;-79
2023/04/23 00:14:14;;;;;;;22.88;17.25;;;10.20;77.40;;;;;;5043316;28;20036;-79
2023/04/23 00:16:40;;;;;;;18.75;14.85;;;10.20;77.30;;;;;;5034598;28;20094;-79
2023/04/23 00:19:06;;;;;;;18.90;15.05;;;10.20;77.30;;;;;;5077721;28;20047;-81
2023/04/23 00:21:32;;;;;;;19.50;14.43;;;10.20;77.40;;;;;;5078573;28;20040;-80
2023/04/23 00:23:58;;;;;;;19.83;15.43;;;10.20;77.40;;;;;;5077862;28;20036;-79
2023/04/23 00:26:24;;;;;;;18.45;14.88;;;10.20;77.50;;;;;;5056942;28;20098;-79
2023/04/23 00:28:49;;;;;;;20.67;15.00;;;10.20;77.50;;;;;;5072934;28;20048;-79
2023/04/23 00:31:15;;;;;;;20.13;15.30;;;10.20;77.50;;;;;;5072641;28;20037;-80
2023/04/23 00:33:41;;;;;;;19.10;15.57;;;10.20;77.60;;;;;;5056132;28;20076;-79
2023/04/23 00:36:07;;;;;;;20.98;16.70;;;10.20;77.60;;;;;;5056202;28;20045;-79
2023/04/23 00:38:33;;;;;;;22.75;18.10;;;10.20;77.70;;;;;;5055662;28;20053;-80
2023/04/23 00:40:59;;;;;;;25.08;18.85;;;10.20;77.60;;;;;;5055973;28;20091;-80
2023/04/23 00:43:25;;;;;;;28.58;20.63;;;10.20;77.60;;;;;;5072461;28;20401;-80
2023/04/23 00:45:51;;;;;;;27.30;21.15;;;10.10;77.60;;;;;;5072283;28;20441;-80
2023/04/23 00:48:17;;;;;;;27.90;21.30;;;10.10;77.50;;;;;;5041560;28;20071;-80
2023/04/23 00:50:42;;;;;;;32.53;24.55;;;10.10;77.50;;;;;;5074947;28;20047;-80
2023/04/23 00:53:08;;;;;;;35.00;26.13;;;10.10;77.50;;;;;;5059314;28;20123;-79
2023/04/23 00:55:34;;;;;;;32.55;23.67;;;10.10;77.50;;;;;;5042419;28;20584;-79
2023/04/23 00:58:00;;;;;;;35.78;26.30;;;10.00;77.60;;;;;;5059110;28;20048;-80
2023/04/23 01:00:26;;;;;;;33.65;24.40;;;10.00;77.80;;;;;;5059095;28;20097;-80
2023/04/23 01:02:52;;;;;;;38.30;27.42;;;10.00;78.00;;;;;;5058902;28;20044;-79
2023/04/23 01:05:19;;;;;;;41.47;31.10;;;10.00;78.10;;;;;;5059155;28;20073;-80
2023/04/23 01:07:46;;;;;;;40.28;29.10;;;9.90;78.20;;;;;;5075382;28;20048;-80
2023/04/23 01:10:12;;;;;;;40.78;29.23;;;9.90;78.40;;;;;;5075370;28;20124;-80
2023/04/23 01:12:38;;;;;;;35.13;24.75;;;9.90;78.50;;;;;;5058797;28;20074;-80
2023/04/23 01:15:04;;;;;;;43.35;30.83;;;9.90;78.60;;;;;;5055180;28;20037;-80
2023/04/23 01:17:31;;;;;;;39.10;27.83;;;9.90;78.80;;;;;;5039023;28;20094;-79
2023/04/23 01:19:56;;;;;;;41.58;30.60;;;9.90;78.90;;;;;;5055210;28;20047;-79
2023/04/23 01:22:23;;;;;;;43.92;31.35;;;9.90;78.90;;;;;;5055452;28;20041;-81
2023/04/23 01:24:49;;;;;;;44.53;31.67;;;9.90;79.00;;;;;;5055144;28;20050;-80
2023/04/23 01:27:15;;;;;;;51.55;35.40;;;9.90;79.20;;;;;;5088574;28;20554;-79
2023/04/23 01:29:41;;;;;;;58.97;39.67;;;9.80;79.20;;;;;;5086483;28;20040;-80
2023/04/23 01:32:08;;;;;;;54.33;36.88;;;9.80;79.30;;;;;;5074758;28;20504;-80
2023/04/23 01:34:34;;;;;;;49.55;34.17;;;9.80;79.40;;;;;;5074838;28;20032;-80
2023/04/23 01:37:02;;;;;;;57.30;39.05;;;9.80;79.50;;;;;;5075238;28;20405;-80
2023/04/23 01:39:28;;;;;;;50.75;34.20;;;9.80;80.20;;;;;;5091670;28;20056;-80
2023/04/23 01:41:54;;;;;;;53.22;38.60;;;9.80;79.90;;;;;;5041832;28;20047;-80
2023/04/23 01:44:20;;;;;;;60.88;40.55;;;9.80;80.00;;;;;;5037948;28;20040;-80
2023/04/23 01:46:45;;;;;;;65.25;42.95;;;9.80;80.20;;;;;;5072106;28;20040;-80
2023/04/23 01:49:12;;;;;;;61.40;40.88;;;9.80;80.30;;;;;;5041582;28;20523;-80
2023/04/23 01:51:37;;;;;;;55.17;36.80;;;9.80;80.50;;;;;;5074998;28;20431;-80
2023/04/23 01:54:03;;;;;;;62.90;43.47;;;9.80;80.60;;;;;;5058364;28;20047;-80
2023/04/23 01:56:29;;;;;;;57.85;39.83;;;9.80;80.70;;;;;;5074909;28;20192;-80
2023/04/23 01:58:55;;;;;;;52.40;36.20;;;9.80;80.80;;;;;;5074699;28;20042;-80
2023/04/23 02:01:21;;;;;;;56.80;40.10;;;9.80;80.80;;;;;;5074836;28;20046;-80
2023/04/23 02:03:49;;;;;;;62.28;42.65;;;9.80;80.90;;;;;;5074893;28;20130;-80
2023/04/23 02:06:16;;;;;;;76.32;48.03;;;9.80;80.90;;;;;;5075123;28;20468;-80
2023/04/23 02:08:42;;;;;;;63.53;43.17;;;9.80;80.90;;;;;;5074360;28;20116;-80
2023/04/23 02:11:08;;;;;;;65.07;43.85;;;9.80;80.90;;;;;;5058135;28;20484;-80
2023/04/23 02:13:33;;;;;;;66.03;45.63;;;9.80;81.00;;;;;;5057992;28;20093;-80
2023/04/23 02:16:00;;;;;;;72.22;48.83;;;9.80;81.00;;;;;;5074833;28;20032;-80
2023/04/23 02:18:25;;;;;;;69.72;48.22;;;9.80;81.10;;;;;;5074759;28;20483;-80
2023/04/23 02:20:53;;;;;;;62.63;41.78;;;9.80;81.10;;;;;;5074881;28;20036;-80
2023/04/23 02:23:19;;;;;;;72.57;47.75;;;9.80;81.20;;;;;;5057880;28;20040;-80
2023/04/23 02:25:45;;;;;;;80.25;50.83;;;9.80;81.20;;;;;;5074666;28;20043;-80
2023/04/23 02:28:12;;;;;;;84.55;51.20;;;9.80;81.20;;;;;;5032974;28;20080;-80
2023/04/23 02:30:44;;;;;;;82.45;47.45;;;9.80;81.30;;;;;;5054691;28;20119;-80
2023/04/23 02:33:10;;;;;;;74.85;49.85;;;9.80;81.30;;;;;;5058490;28;20036;-80
2023/04/23 02:35:35;;;;;;;74.18;49.88;;;9.80;81.40;;;;;;5059219;28;20182;-80
2023/04/23 02:38:01;;;;;;;67.38;46.58;;;9.70;81.80;;;;;;5077971;28;20513;-80
2023/04/23 02:40:27;;;;;;;74.07;48.40;;;9.70;81.40;;;;;;5078406;28;20104;-80
2023/04/23 02:42:53;;;;;;;71.00;47.47;;;9.80;81.50;;;;;;5078301;28;20396;-80
2023/04/23 02:45:19;;;;;;;67.45;47.40;;;9.70;81.50;;;;;;5061356;28;20039;-79
2023/04/23 02:47:44;;;;;;;63.70;43.70;;;10.00;81.70;;;;;;5028109;28;20043;-79
2023/04/23 02:50:10;;;;;;;72.30;48.65;;;9.70;81.50;;;;;;5078225;28;20123;-79
2023/04/23 02:52:36;;;;;;;62.45;42.63;;;9.70;81.50;;;;;;5061176;28;20503;-79
2023/04/23 02:55:02;;;;;;;90.93;53.08;;;9.70;81.50;;;;;;5057990;28;20032;-80
2023/04/23 02:57:28;;;;;;;76.40;50.00;;;9.80;81.50;;;;;;5074621;28;20610;-79
2023/04/23 02:59:54;;;;;;;73.50;50.53;;;9.70;81.30;;;;;;5061286;28;20071;-80
2023/04/23 03:02:20;;;;;;;74.82;49.97;;;9.70;81.30;;;;;;5077843;28;20040;-80
2023/04/23 03:04:45;;;;;;;73.78;50.97;;;9.70;81.30;;;;;;5060936;28;20047;-79
2023/04/23 03:07:12;;;;;;;69.22;49.40;;;9.70;81.30;;;;;;5077537;28;20121;-79
2023/04/23 03:09:38;;;;;;;108.03;51.60;;;9.60;81.30;;;;;;5057857;28;20127;-79
2023/04/23 03:12:04;;;;;;;72.72;46.60;;;9.60;81.40;;;;;;5061629;28;20036;-80
2023/04/23 03:14:29;;;;;;;72.32;47.58;;;9.60;81.40;;;;;;5077306;28;20091;-79
2023/04/23 03:16:55;;;;;;;68.63;46.80;;;9.50;81.50;;;;;;5077250;28;20400;-80
2023/04/23 03:19:21;;;;;;;69.28;47.47;;;9.50;81.60;;;;;;5077409;28;20040;-80
2023/04/23 03:21:47;;;;;;;77.82;50.53;;;9.50;81.70;;;;;;5060483;28;20246;-79
2023/04/23 03:24:13;;;;;;;65.13;44.72;;;9.40;81.70;;;;;;5077140;28;20032;-80
2023/04/23 03:26:39;;;;;;;70.20;45.45;;;9.40;81.70;;;;;;5060664;28;20081;-80
2023/04/23 03:29:06;;;;;;;63.28;42.50;;;9.40;81.70;;;;;;5077036;28;20044;-79
2023/04/23 03:31:32;;;;;;;61.80;42.40;;;9.30;81.70;;;;;;5060391;28;20040;-79
2023/04/23 03:33:57;;;;;;;71.80;41.67;;;9.30;81.80;;;;;;5093650;28;20104;-79
2023/04/23 03:36:23;;;;;;;64.50;40.63;;;9.20;81.80;;;;;;5094045;28;20122;-79
2023/04/23 03:38:49;;;;;;;107.90;43.45;;;9.20;81.80;;;;;;5059884;28;20056;-79
2023/04/23 03:41:15;;;;;;;71.10;41.97;;;9.10;81.90;;;;;;5060666;28;20109;-80
2023/04/23 03:43:40;;;;;;;60.15;39.90;;;9.10;82.00;;;;;;5077100;28;20412;-80
2023/04/23 03:46:06;;;;;;;59.50;39.67;;;9.00;82.00;;;;;;5076931;28;20401;-80
2023/04/23 03:48:32;;;;;;;63.55;43.42;;;9.00;82.20;;;;;;5060148;28;20047;-80
2023/04/23 03:50:57;;;;;;;69.35;44.75;;;9.00;82.40;;;;;;5043497;28;20530;-80
2023/04/23 03:53:23;;;;;;;62.25;40.75;;;9.00;82.50;;;;;;5043420;28;20036;-79
2023/04/23 03:55:49;;;;;;;67.13;42.78;;;8.90;82.60;;;;;;5076894;28;20032;-79
2023/04/23 03:58:15;;;;;;;77.70;45.00;;;8.90;82.70;;;;;;5076777;28;20050;-80
2023/04/23 04:00:40;;;;;;;94.55;45.10;;;8.90;82.80;;;;;;5043314;28;20122;-81
2023/04/23 04:03:07;;;;;;;75.10;45.03;;;8.90;83.00;;;;;;5060257;28;20091;-80
2023/04/23 04:05:34;;;;;;;82.05;45.45;;;8.90;83.00;;;;;;5093119;28;20097;-80
2023/04/23 04:08:00;;;;;;;69.82;45.20;;;8.80;83.10;;;;;;5043055;28;20089;-80
2023/04/23 04:10:26;;;;;;;72.43;47.50;;;8.80;83.10;;;;;;5093576;28;20087;-80
2023/04/23 04:12:54;;;;;;;79.90;45.25;;;8.70;83.30;;;;;;5042960;28;20043;-80
2023/04/23 04:15:19;;;;;;;70.57;46.55;;;8.70;83.50;;;;;;5075820;28;20036;-80
2023/04/23 04:17:46;;;;;;;68.30;45.25;;;8.70;83.60;;;;;;5076256;28;20043;-80
2023/04/23 04:20:12;;;;;;;72.78;46.08;;;8.70;83.70;;;;;;5056120;28;20047;-80
2023/04/23 04:22:38;;;;;;;79.05;46.30;;;8.70;83.90;;;;;;5056344;28;20385;-80
2023/04/23 04:25:04;;;;;;;76.47;48.53;;;8.70;84.10;;;;;;5075778;28;20036;-80
2023/04/23 04:27:32;;;;;;;74.82;47.83;;;8.70;84.20;;;;;;5076060;28;20047;-80
2023/04/23 04:30:00;;;;;;;85.10;49.75;;;8.70;84.30;;;;;;5059298;28;20552;-80
2023/04/23 04:32:29;;;;;;;86.50;49.22;;;8.70;84.90;;;;;;5059629;28;20385;-79
2023/04/23 04:34:55;;;;;;;94.03;50.35;;;8.60;84.50;;;;;;5075953;28;20085;-80
2023/04/23 04:37:21;;;;;;;81.57;51.05;;;8.60;84.70;;;;;;5032673;28;20465;-80
2023/04/23 04:39:47;;;;;;;86.32;53.00;;;8.60;84.80;;;;;;5075515;28;20087;-80
2023/04/23 04:42:13;;;;;;;85.10;51.33;;;8.60;85.00;;;;;;5092619;28;20048;-80
2023/04/23 04:44:38;;;;;;;95.95;54.67;;;8.60;85.20;;;;;;5035591;28;20044;-80
2023/04/23 04:47:06;;;;;;;92.78;53.42;;;8.60;85.40;;;;;;5039220;28;20048;-79
2023/04/23 04:49:32;;;;;;;92.65;55.55;;;8.60;85.50;;;;;;5055690;28;20397;-80
2023/04/23 04:51:59;;;;;;;89.65;53.70;;;8.60;85.60;;;;;;5055944;28;20033;-80
2023/04/23 04:54:25;;;;;;;99.88;56.20;;;8.70;85.90;;;;;;5072214;28;20028;-80
2023/04/23 04:56:50;;;;;;;94.13;54.92;;;8.70;86.00;;;;;;5055554;28;20119;-80
2023/04/23 04:59:16;;;;;;;104.10;57.75;;;8.70;86.10;;;;;;5052619;28;20040;-80
2023/04/23 05:01:42;;;;;;;102.47;55.83;;;8.70;86.20;;;;;;5075096;28;20040;-80
2023/04/23 05:04:08;;;;;;;101.53;55.42;;;8.70;86.30;;;;;;5075608;28;20080;-79
2023/04/23 05:06:34;;;;;;;93.63;53.35;;;8.70;86.40;;;;;;5075370;28;20492;-80
2023/04/23 05:09:00;;;;;;;90.15;54.22;;;8.70;86.50;;;;;;5092238;28;20043;-80
2023/04/23 05:11:25;;;;;;;98.10;55.75;;;8.70;86.60;;;;;;5075461;28;20039;-80
2023/04/23 05:13:51;;;;;;;98.47;56.28;;;8.80;86.70;;;;;;5042508;28;20038;-80
2023/04/23 05:16:18;;;;;;;100.80;57.00;;;8.80;86.70;;;;;;5075381;28;20043;-79
2023/04/23 05:18:43;;;;;;;95.68;54.17;;;8.80;86.80;;;;;;5075236;28;20040;-80
2023/04/23 05:21:09;;;;;;;103.55;57.25;;;8.80;86.80;;;;;;5075335;28;20046;-80
2023/04/23 05:23:35;;;;;;;101.63;56.45;;;8.80;86.80;;;;;;5058285;28;20040;-80
2023/04/23 05:26:02;;;;;;;102.20;56.63;;;8.90;86.90;;;;;;5058242;28;20040;-80
2023/04/23 05:28:31;;;;;;;101.30;57.65;;;8.90;87.00;;;;;;5075297;28;20055;-81
2023/04/23 05:30:57;;;;;;;102.60;58.72;;;8.90;87.10;;;;;;5058825;28;20119;-80
2023/04/23 05:33:23;;;;;;;100.70;59.28;;;8.90;87.40;;;;;;5054996;28;20041;-81
2023/04/23 05:35:49;;;;;;;102.00;59.05;;;8.90;87.30;;;;;;5057541;28;20033;-80
2023/04/23 05:38:15;;;;;;;100.50;55.17;;;9.00;87.60;;;;;;5058210;28;20562;-80
2023/04/23 05:40:41;;;;;;;101.28;56.70;;;8.90;87.50;;;;;;5054957;28;20044;-80
2023/04/23 05:43:06;;;;;;;101.05;56.75;;;9.00;87.70;;;;;;5055060;28;20044;-80
2023/04/23 05:45:32;;;;;;;93.82;53.75;;;9.10;87.80;;;;;;5071477;28;20385;-80
2023/04/23 05:48:00;;;;;;;90.45;54.50;;;9.10;88.00;;;;;;5074933;28;20134;-81
2023/04/23 05:50:26;;;;;;;93.10;53.58;;;9.10;88.00;;;;;;5075420;28;20089;-81
2023/04/23 05:52:52;;;;;;;89.97;53.53;;;9.20;88.10;;;;;;5041603;28;20033;-81
2023/04/23 05:55:19;;;;;;;88.07;53.00;;;9.20;88.20;;;;;;5055082;28;20382;-81
2023/04/23 05:57:45;;;;;;;89.22;54.05;;;9.30;88.30;;;;;;5071568;28;20039;-80
2023/04/23 06:00:11;;;;;;;81.93;50.22;;;9.30;88.30;;;;;;5071827;28;20033;-81
2023/04/23 06:02:38;;;;;;;80.78;50.55;;;9.40;88.30;;;;;;5090651;28;20036;-81
2023/04/23 06:05:05;;;;;;;77.30;49.60;;;9.40;88.30;;;;;;5058638;28;20083;-81
2023/04/23 06:07:31;;;;;;;75.75;49.38;;;9.50;88.40;;;;;;5091779;28;20040;-81
2023/04/23 06:09:57;;;;;;;75.10;48.53;;;9.50;88.40;;;;;;5058036;28;20043;-81
2023/04/23 06:12:22;;;;;;;74.78;47.88;;;9.60;88.40;;;;;;5078266;28;20032;-81
2023/04/23 06:14:48;;;;;;;72.50;45.83;;;9.70;88.40;;;;;;5095549;28;20036;-81
2023/04/23 06:17:14;;;;;;;73.90;50.08;;;9.70;88.20;;;;;;5061848;28;20040;-81
2023/04/23 06:19:40;;;;;;;67.95;45.72;;;9.80;88.20;;;;;;5095545;28;20079;-81
2023/04/23 06:22:06;;;;;;;68.70;46.00;;;9.90;88.50;;;;;;5078343;28;20043;-81
2023/04/23 06:24:32;;;;;;;62.42;44.35;;;10.00;88.60;;;;;;5061762;28;20044;-81
2023/04/23 06:26:58;;;;;;;65.57;44.38;;;10.20;88.80;;;;;;5078719;28;20160;-81
2023/04/23 06:29:24;;;;;;;56.40;40.15;;;10.40;89.30;;;;;;5078306;28;20523;-80
2023/04/23 06:31:49;;;;;;;54.38;40.30;;;10.60;89.40;;;;;;5078046;28;20036;-81
2023/04/23 06:34:15;;;;;;;53.53;40.55;;;10.90;89.00;;;;;;5061938;28;20463;-81
2023/04/23 06:36:42;;;;;;;50.13;36.88;;;11.00;88.20;;;;;;5058031;28;20178;-81
2023/04/23 06:39:08;;;;;;;52.38;38.60;;;11.20;87.60;;;;;;5041681;28;20088;-82
2023/04/23 06:41:34;;;;;;;48.80;36.72;;;11.50;87.20;;;;;;5041683;28;20094;-82
2023/04/23 06:43:59;;;;;;;54.20;39.72;;;11.70;86.30;;;;;;5058271;28;20044;-82
2023/04/23 06:46:25;;;;;;;47.30;35.53;;;11.90;86.20;;;;;;5058271;28;20043;-81
2023/04/23 06:48:51;;;;;;;46.75;35.45;;;12.10;85.50;;;;;;5068686;28;20044;-81
2023/04/23 06:51:17;;;;;;;43.42;33.75;;;12.20;84.30;;;;;;5061269;28;20071;-81
2023/04/23 06:53:42;;;;;;;42.53;34.47;;;12.40;83.20;;;;;;5057933;28;20040;-81
2023/04/23 06:56:08;;;;;;;43.83;33.80;;;12.40;82.60;;;;;;5094711;28;20032;-82
2023/04/23 06:58:34;;;;;;;39.80;32.95;;;12.50;82.50;;;;;;5077889;28;20073;-81
2023/04/23 07:01:02;;;;;;;42.47;33.10;;;12.70;83.00;;;;;;5061576;28;20071;-82
2023/04/23 07:03:30;;;;;;;39.65;32.45;;;12.90;82.50;;;;;;5077980;28;20101;-82
2023/04/23 07:05:56;;;;;;;38.38;32.33;;;13.10;82.10;;;;;;5077954;28;20032;-81
2023/04/23 07:08:21;;;;;;;39.42;32.70;;;13.50;82.30;;;;;;5077432;28;20541;-81
2023/04/23 07:10:47;;;;;;;37.65;30.13;;;13.80;81.40;;;;;;5077893;28;20044;-81
2023/04/23 07:13:14;;;;;;;37.65;29.67;;;14.10;80.60;;;;;;5044343;28;20464;-81
2023/04/23 07:15:40;;;;;;;35.30;29.80;;;14.30;79.50;;;;;;5061110;28;20040;-81
2023/04/23 07:18:06;;;;;;;31.40;27.73;;;14.60;78.60;;;;;;5077433;28;20130;-81
2023/04/23 07:20:32;;;;;;;35.08;28.75;;;14.90;78.40;;;;;;5043832;28;20127;-80
2023/04/23 07:22:58;;;;;;;32.50;27.65;;;15.20;77.60;;;;;;5077276;28;20036;-80
2023/04/23 07:25:25;;;;;;;30.33;25.77;;;15.50;76.50;;;;;;5044150;28;20048;-81
2023/04/23 07:27:52;;;;;;;28.83;25.35;;;15.80;74.70;;;;;;5061014;28;20085;-81
2023/04/23 07:30:18;;;;;;;30.45;26.58;;;16.00;73.70;;;;;;5094124;28;20075;-81
2023/04/23 07:32:43;;;;;;;29.67;25.17;;;16.30;73.10;;;;;;5077113;28;20074;-80
2023/04/23 07:35:10;;;;;;;28.38;24.98;;;16.60;71.50;;;;;;5094022;28;20046;-81
2023/04/23 07:37:36;;;;;;;26.90;24.00;;;16.70;71.10;;;;;;5077218;28;20370;-81
2023/04/23 07:40:04;;;;;;;28.10;24.33;;;16.90;69.70;;;;;;5060352;28;20362;-82
2023/04/23 07:42:30;;;;;;;25.83;23.05;;;17.10;69.00;;;;;;5060703;28;20043;-81
2023/04/23 07:44:56;;;;;;;26.70;23.75;;;17.20;68.80;;;;;;5077052;28;20063;-80
2023/04/23 07:47:22;;;;;;;25.42;22.73;;;17.50;68.50;;;;;;5060605;28;20090;-80
2023/04/23 07:49:48;;;;;;;24.17;21.58;;;17.70;67.90;;;;;;5060070;28;20412;-80
2023/04/23 07:52:15;;;;;;;25.67;22.67;;;18.00;68.00;;;;;;5060165;28;20481;-82
2023/04/23 07:54:40;;;;;;;24.90;22.25;;;18.30;66.80;;;;;;5060253;28;20060;-82
2023/04/23 07:57:06;;;;;;;26.30;23.00;;;18.60;65.00;;;;;;5087913;28;20044;-82
2023/04/23 07:59:32;;;;;;;23.75;21.25;;;18.80;63.50;;;;;;5056016;28;20039;-81
2023/04/23 08:01:58;;;;;;;23.40;20.63;;;19.00;62.90;;;;;;5060042;28;20520;-81
2023/04/23 08:04:23;;;;;;;25.92;22.58;;;19.10;62.20;;;;;;5093210;28;20044;-81
2023/04/23 08:06:49;;;;;;;23.33;20.83;;;19.30;61.20;;;;;;5059866;28;20039;-81
2023/04/23 08:09:15;;;;;;;24.25;21.58;;;19.50;60.70;;;;;;5060079;28;20047;-79
2023/04/23 08:11:41;;;;;;;24.23;21.63;;;19.70;60.10;;;;;;5093647;28;20040;-81
2023/04/23 08:14:07;;;;;;;22.48;19.98;;;19.80;60.60;;;;;;5059912;28;20090;-81
2023/04/23 08:16:32;;;;;;;22.70;20.20;;;20.00;59.60;;;;;;5059986;28;20040;-81
2023/04/23 08:18:58;;;;;;;22.38;19.98;;;20.10;58.60;;;;;;5060398;28;20036;-81
2023/04/23 08:21:25;;;;;;;22.13;19.77;;;20.30;58.90;;;;;;5076928;28;20078;-80
2023/04/23 08:23:52;;;;;;;20.75;18.60;;;20.40;58.50;;;;;;5076306;28;20108;-81
2023/04/23 08:26:17;;;;;;;20.40;18.30;;;20.50;58.10;;;;;;5075952;28;20067;-81
2023/04/23 08:28:45;;;;;;;20.35;18.30;;;20.60;58.20;;;;;;5056013;28;20076;-83
2023/04/23 08:31:11;;;;;;;20.85;18.63;;;20.80;58.30;;;;;;5056442;28;20068;-82
2023/04/23 08:33:37;;;;;;;19.38;17.40;;;20.90;57.70;;;;;;5055706;28;20085;-82
2023/04/23 08:36:02;;;;;;;20.50;18.38;;;21.10;57.30;;;;;;5056290;28;20489;-81
2023/04/23 08:38:28;;;;;;;19.50;16.98;;;21.20;56.80;;;;;;5055769;28;20097;-82
2023/04/23 08:40:57;;;;;;;15.98;13.98;;;21.40;56.60;;;;;;5042628;28;20055;-81
2023/04/23 08:43:37;;;;;;;15.65;12.80;;;21.50;55.40;;;;;;5075651;28;20044;-81
2023/04/23 08:46:03;;;;;;;16.50;13.32;;;21.60;55.10;;;;;;5075644;28;20071;-80
2023/04/23 08:48:30;;;;;;;15.15;12.30;;;21.70;55.50;;;;;;5075416;28;20892;-81
2023/04/23 08:50:56;;;;;;;14.50;12.98;;;21.80;55.10;;;;;;5075718;28;20122;-81
2023/04/23 08:53:26;;;;;;;15.65;12.55;;;21.90;55.00;;;;;;5092357;28;20124;-82
2023/04/23 08:55:55;;;;;;;14.10;11.82;;;22.10;55.30;;;;;;5076201;28;20040;-81
2023/04/23 08:58:21;;;;;;;15.73;11.32;;;22.20;54.40;;;;;;5075635;28;20051;-81
2023/04/23 09:00:50;;;;;;;11.63;9.38;;;22.30;54.20;;;;;;5075550;28;20123;-80
2023/04/23 09:03:17;;;;;;;11.90;10.13;;;22.40;53.20;;;;;;5075552;28;20581;-82
2023/04/23 09:05:43;;;;;;;13.88;10.23;;;22.50;52.60;;;;;;5042855;28;20381;-81
2023/04/23 09:08:09;;;;;;;13.10;10.73;;;22.50;52.80;;;;;;5059104;28;20032;-81
2023/04/23 09:10:39;;;;;;;13.90;10.25;;;22.60;52.70;;;;;;5055299;28;20037;-81
2023/04/23 09:13:05;;;;;;;11.98;7.95;;;22.70;52.10;;;;;;5070908;28;20048;-79
2023/04/23 09:15:31;;;;;;;9.88;7.97;;;22.80;51.20;;;;;;5057930;28;20036;-81
2023/04/23 09:17:58;;;;;;;12.15;9.35;;;22.80;51.00;;;;;;5058565;28;20046;-80
2023/04/23 09:20:24;;;;;;;12.38;8.75;;;22.80;52.10;;;;;;5075731;28;20051;-81
2023/04/23 09:22:54;;;;;;;9.52;8.07;;;22.80;51.70;;;;;;5041950;28;20572;-80
2023/04/23 09:25:21;;;;;;;10.88;8.00;;;22.80;51.10;;;;;;5075445;28;20082;-80
2023/04/23 09:27:48;;;;;;;11.35;8.48;;;22.80;50.70;;;;;;5075494;28;20040;-81
2023/04/23 09:30:15;;;;;;;8.88;7.25;;;22.70;51.20;;;;;;5075581;28;20040;-81
2023/04/23 09:32:44;;;;;;;10.18;7.00;;;22.70;51.50;;;;;;5089623;28;20361;-80
2023/04/23 09:35:14;;;;;;;9.90;7.10;;;22.70;51.60;;;;;;5086299;28;20087;-80
2023/04/23 09:37:47;;;;;;;8.40;5.78;;;22.80;50.90;;;;;;5069422;28;20098;-80
2023/04/23 09:40:19;;;;;;;9.65;5.78;;;22.80;50.40;;;;;;5086159;28;20063;-80
2023/04/23 09:42:51;;;;;;;7.75;5.50;;;22.80;50.40;;;;;;5086497;28;20044;-80
2023/04/23 09:45:18;;;;;;;7.68;4.35;;;22.80;50.50;;;;;;5088172;28;20397;-81
2023/04/23 09:47:54;;;;;;;7.25;4.55;;;22.90;50.80;;;;;;5040406;28;20393;-81
2023/04/23 09:50:37;;;;;;;9.07;5.78;;;22.90;50.70;;;;;;5090301;28;20118;-80
2023/04/23 09:53:12;;;;;;;6.53;4.43;;;23.00;50.30;;;;;;5090227;28;20488;-81
2023/04/23 09:55:41;;;;;;;7.35;4.95;;;23.00;49.80;;;;;;5056857;28;20051;-80
2023/04/23 09:58:11;;;;;;;8.70;5.20;;;23.00;49.20;;;;;;5056524;28;20032;-81
2023/04/23 10:00:38;;;;;;;6.97;4.72;;;23.00;49.70;;;;;;5090478;28;20109;-81
2023/04/23 10:03:06;;;;;;;6.07;3.85;;;22.90;49.00;;;;;;5040054;28;20097;-81
2023/04/23 10:05:40;;;;;;;7.78;4.53;;;22.90;49.20;;;;;;5056765;28;20553;-79
2023/04/23 10:08:06;;;;;;;7.28;4.70;;;22.80;49.40;;;;;;5090521;28;20435;-81
2023/04/23 10:10:33;;;;;;;7.22;4.07;;;22.80;50.60;;;;;;5056693;28;20392;-81
2023/04/23 10:13:00;;;;;;;7.57;4.32;;;22.80;50.30;;;;;;5072436;28;20040;-80
2023/04/23 10:15:26;;;;;;;7.15;4.05;;;22.80;49.60;;;;;;5090278;28;20028;-80
2023/04/23 10:17:53;;;;;;;6.82;4.13;;;22.80;49.40;;;;;;5056183;28;20567;-81
2023/04/23 10:20:21;;;;;;;9.20;5.47;;;22.90;49.70;;;;;;5055869;28;20491;-81
2023/04/23 10:22:47;;;;;;;8.65;6.15;;;22.90;50.60;;;;;;5072900;28;20400;-81
2023/04/23 10:25:14;;;;;;;8.55;4.75;;;22.90;49.70;;;;;;5056260;28;20032;-79
2023/04/23 10:27:42;;;;;;;8.18;5.13;;;22.90;49.70;;;;;;5056336;28;20047;-80
2023/04/23 10:30:10;;;;;;;9.90;6.50;;;22.90;48.80;;;;;;5072702;28;20039;-81
2023/04/23 10:32:37;;;;;;;9.38;6.13;;;22.90;49.00;;;;;;5072049;28;20170;-81
2023/04/23 10:35:04;;;;;;;10.05;6.82;;;22.90;49.60;;;;;;5073131;28;20040;-82
2023/04/23 10:37:30;;;;;;;8.02;6.60;;;23.00;49.40;;;;;;5072546;28;20035;-81
2023/04/23 10:40:04;;;;;;;11.45;5.88;;;23.00;49.20;;;;;;5055711;28;20139;-80
2023/04/23 10:42:30;;;;;;;7.82;5.88;;;23.00;49.10;;;;;;5071466;28;20040;-81
2023/04/23 10:44:57;;;;;;;7.47;5.75;;;23.00;48.80;;;;;;5039468;28;20512;-81
2023/04/23 10:47:23;;;;;;;6.07;4.88;;;23.00;48.50;;;;;;5055727;28;20036;-80
2023/04/23 10:49:50;;;;;;;9.32;5.38;;;23.00;48.40;;;;;;5038908;28;20040;-80
2023/04/23 10:52:17;;;;;;;6.57;4.80;;;22.90;48.20;;;;;;5089264;28;20047;-80
2023/04/23 10:54:47;;;;;;;5.90;4.35;;;22.90;48.10;;;;;;5056549;28;20035;-80
2023/04/23 10:57:13;;;;;;;6.40;3.58;;;22.90;47.70;;;;;;5070999;28;20366;-80
2023/04/23 10:59:50;;;;;;;7.07;3.63;;;22.90;47.30;;;;;;5055100;28;20042;-79
2023/04/23 11:02:16;;;;;;;5.18;3.10;;;22.80;47.00;;;;;;5056856;28;20133;-80
2023/04/23 11:04:54;;;;;;;5.57;3.33;;;22.70;47.50;;;;;;5055643;28;20043;-80
2023/04/23 11:07:20;;;;;;;8.48;3.42;;;22.70;47.40;;;;;;5071759;28;20085;-79
2023/04/23 11:09:46;;;;;;;5.85;2.50;;;22.60;48.20;;;;;;5038768;28;20040;-80
2023/04/23 11:12:13;;;;;;;4.63;2.25;;;22.60;47.20;;;;;;5073894;28;20111;-80
2023/04/23 11:14:44;;;;;;;8.07;4.25;;;22.60;46.30;;;;;;5066632;28;20392;-80
2023/04/23 11:17:12;;;;;;;6.82;3.63;;;22.50;46.80;;;;;;5057641;28;20036;-81
2023/04/23 11:19:40;;;;;;;5.68;2.83;;;22.50;47.40;;;;;;5060896;28;20683;-80
2023/04/23 11:22:19;;;;;;;4.82;3.03;;;22.40;47.40;;;;;;5041081;28;20485;-80
2023/04/23 11:24:45;;;;;;;6.72;3.00;;;22.30;47.40;;;;;;5090287;28;20043;-80
2023/04/23 11:27:14;;;;;;;6.95;3.45;;;22.30;47.60;;;;;;5077212;28;20044;-78
2023/04/23 11:29:44;;;;;;;8.32;3.38;;;22.30;47.80;;;;;;5077216;28;20040;-79
2023/04/23 11:32:14;;;;;;;5.25;3.05;;;22.30;48.80;;;;;;5077345;28;20039;-78
2023/04/23 11:34:42;;;;;;;5.78;2.85;;;22.20;48.70;;;;;;5077181;28;20476;-79
2023/04/23 11:37:12;;;;;;;5.93;2.97;;;22.30;49.20;;;;;;5093859;28;20454;-79
2023/04/23 11:39:42;;;;;;;5.68;2.08;;;22.30;48.30;;;;;;5060347;28;20491;-79
2023/04/23 11:42:13;;;;;;;6.20;1.92;;;22.40;46.40;;;;;;5076902;28;20047;-79
2023/04/23 11:44:45;;;;;;;4.90;1.95;;;22.30;45.90;;;;;;5060803;28;20403;-79
2023/04/23 11:47:13;;;;;;;6.00;1.98;;;22.30;46.00;;;;;;5077861;28;20040;-79
2023/04/23 11:49:41;;;;;;;3.95;1.73;;;22.30;46.30;;;;;;5093579;28;20545;-79
2023/04/23 11:52:07;;;;;;;6.20;1.80;;;22.30;45.90;;;;;;5093542;28;20043;-79
2023/04/23 11:54:34;;;;;;;4.13;1.90;;;22.30;45.50;;;;;;5060115;28;20073;-78
2023/04/23 11:57:00;;;;;;;5.78;1.45;;;22.30;45.90;;;;;;5077045;28;20071;-79
2023/04/23 11:59:27;;;;;;;4.10;1.17;;;22.30;45.20;;;;;;5077169;28;20086;-78
2023/04/23 12:01:57;;;;;;;6.75;1.65;;;22.30;44.90;;;;;;5093476;28;20036;-78
2023/04/23 12:04:28;;;;;;;3.97;1.50;;;22.30;44.30;;;;;;5093828;28;20412;-79
2023/04/23 12:06:55;;;;;;;3.85;1.40;;;22.30;44.00;;;;;;5071398;28;20039;-79
2023/04/23 12:09:23;;;;;;;5.75;1.55;;;22.30;44.30;;;;;;5091160;28;20040;-78
2023/04/23 12:11:50;;;;;;;5.65;1.98;;;22.20;43.50;;;;;;5092634;28;20111;-78
2023/04/23 12:14:17;;;;;;;5.68;1.83;;;22.20;43.70;;;;;;5076361;28;20054;-78
2023/04/23 12:16:45;;;;;;;5.30;1.50;;;22.30;43.70;;;;;;5093174;28;20039;-78
2023/04/23 12:19:16;;;;;;;6.30;1.70;;;22.30;43.70;;;;;;5076171;28;20493;-78
2023/04/23 12:21:56;;;;;;;4.80;1.48;;;22.30;43.60;;;;;;5093244;28;20130;-78
2023/04/23 12:24:26;;;;;;;5.85;1.98;;;22.30;44.20;;;;;;5076147;28;20071;-79
2023/04/23 12:26:59;;;;;;;5.75;1.25;;;22.30;43.20;;;;;;5075999;28;20044;-78
2023/04/23 12:29:25;;;;;;;3.28;1.30;;;22.40;43.50;;;;;;5093043;28;20040;-79
2023/04/23 12:31:52;;;;;;;2.95;1.35;;;22.30;43.10;;;;;;5090435;28;20724;-78
2023/04/23 12:34:20;;;;;;;6.43;2.15;;;22.40;43.90;;;;;;5096739;28;20118;-78